createdAt,value
2022-10-05T00:01:32.925Z,2.40
2022-10-05T00:04:11.482Z,2.90
2022-10-05T00:06:41.415Z,2.53
2022-10-05T00:09:16.107Z,2.78
2022-10-05T00:11:44.969Z,3.05
2022-10-05T00:14:22.798Z,2.80
2022-10-05T00:16:51.625Z,2.30
2022-10-05T00:19:25.609Z,2.00
2022-10-05T00:21:59.104Z,2.60
2022-10-05T00:24:27.461Z,2.60
2022-10-05T00:26:58.234Z,2.50
2022-10-05T00:29:27.731Z,2.38
2022-10-05T00:31:56.141Z,2.20
2022-10-05T00:34:27.063Z,2.58
2022-10-05T00:36:56.758Z,2.50
2022-10-05T00:39:25.205Z,2.13
2022-10-05T00:42:07.085Z,2.60
2022-10-05T00:44:44.219Z,2.80
2022-10-05T00:47:35.730Z,2.58
2022-10-05T00:50:32.223Z,3.17
2022-10-05T00:53:15.322Z,2.92
2022-10-05T00:55:58.588Z,3.28
2022-10-05T00:58:36.874Z,3.33
2022-10-05T01:01:13.234Z,2.42
2022-10-05T01:03:58.093Z,2.90
2022-10-05T01:06:34.469Z,2.80
2022-10-05T01:09:14.015Z,2.60
2022-10-05T01:11:50.123Z,2.95
2022-10-05T01:14:23.192Z,3.45
2022-10-05T01:16:57.413Z,2.70
2022-10-05T01:19:50.858Z,2.83
2022-10-05T01:22:31.247Z,2.75
2022-10-05T01:25:14.023Z,3.15
2022-10-05T01:27:56.152Z,3.17
2022-10-05T01:30:24.792Z,3.53
2022-10-05T01:33:01.260Z,4.40
2022-10-05T01:35:42.583Z,3.97
2022-10-05T01:38:22.306Z,3.55
2022-10-05T01:40:59.291Z,3.50
2022-10-05T01:43:35.013Z,3.90
2022-10-05T01:46:15.640Z,4.03
2022-10-05T01:48:54.311Z,3.70
2022-10-05T01:51:33.282Z,4.25
2022-10-05T01:54:08.245Z,4.55
2022-10-05T01:56:54.970Z,4.13
2022-10-05T01:59:34.546Z,3.38
2022-10-05T02:02:08.329Z,3.78
2022-10-05T02:05:01.607Z,4.80
2022-10-05T02:07:37.798Z,3.72
2022-10-05T02:10:14.149Z,4.03
2022-10-05T02:12:43.496Z,4.55
2022-10-05T02:15:16.294Z,4.40
2022-10-05T02:17:50.385Z,4.20
2022-10-05T02:20:23.820Z,6.10
2022-10-05T02:22:54.724Z,4.88
2022-10-05T02:25:28.486Z,5.05
2022-10-05T02:28:05.807Z,5.55
2022-10-05T02:30:43.549Z,5.72
2022-10-05T02:33:18.720Z,6.30
2022-10-05T02:35:47.676Z,6.32
2022-10-05T02:38:28.622Z,5.97
2022-10-05T02:41:04.002Z,5.32
2022-10-05T02:43:41.919Z,5.57
2022-10-05T02:46:23.383Z,5.80
2022-10-05T02:49:00.192Z,5.45
2022-10-05T02:51:35.251Z,5.65
2022-10-05T02:54:11.469Z,5.45
2022-10-05T02:56:48.679Z,5.80
2022-10-05T02:59:24.852Z,5.57
2022-10-05T03:01:59.252Z,4.68
2022-10-05T03:04:36.986Z,4.68
2022-10-05T03:07:16.500Z,5.00
2022-10-05T03:09:58.835Z,4.57
2022-10-05T03:12:50.894Z,4.70
2022-10-05T03:15:31.541Z,4.53
2022-10-05T03:18:14.007Z,5.03
2022-10-05T03:20:48.512Z,4.43
2022-10-05T03:23:30.869Z,5.97
2022-10-05T03:26:25.083Z,5.57
2022-10-05T03:29:02.746Z,4.90
2022-10-05T03:31:39.797Z,5.53
2022-10-05T03:34:16.430Z,5.38
2022-10-05T03:36:50.679Z,6.47
2022-10-05T03:39:23.964Z,6.03
2022-10-05T03:42:02.645Z,5.82
2022-10-05T03:44:40.442Z,5.43
2022-10-05T03:47:19.465Z,6.00
2022-10-05T03:50:07.282Z,6.07
2022-10-05T03:52:40.830Z,5.85
2022-10-05T03:55:18.489Z,6.25
2022-10-05T03:57:48.255Z,6.40
2022-10-05T04:00:20.809Z,6.43
2022-10-05T04:02:55.502Z,6.40
2022-10-05T04:05:31.925Z,7.30
2022-10-05T04:08:09.370Z,6.75
2022-10-05T04:10:43.777Z,7.25
2022-10-05T04:13:17.780Z,6.65
2022-10-05T04:15:51.921Z,6.93
2022-10-05T04:18:27.683Z,7.10
2022-10-05T04:21:05.189Z,7.47
2022-10-05T04:23:41.562Z,6.93
2022-10-05T04:26:15.465Z,7.30
2022-10-05T04:28:53.539Z,6.22
2022-10-05T04:31:35.224Z,6.30
2022-10-05T04:34:09.148Z,6.40
2022-10-05T04:36:47.092Z,6.38
2022-10-05T04:39:24.786Z,6.70
2022-10-05T04:42:05.620Z,6.70
2022-10-05T04:45:03.996Z,6.20
2022-10-05T04:47:57.506Z,6.55
2022-10-05T04:50:41.653Z,7.03
2022-10-05T04:53:22.698Z,7.43
2022-10-05T04:55:57.979Z,6.57
2022-10-05T04:58:42.281Z,7.03
2022-10-05T05:01:32.610Z,6.85
2022-10-05T05:04:18.149Z,7.10
2022-10-05T05:06:57.091Z,7.13
2022-10-05T05:09:56.840Z,7.68
2022-10-05T05:12:35.959Z,7.57
2022-10-05T05:15:23.953Z,6.95
2022-10-05T05:18:07.981Z,7.72
2022-10-05T05:20:53.894Z,7.18
2022-10-05T05:23:29.236Z,7.63
2022-10-05T05:26:10.014Z,7.43
2022-10-05T05:28:48.584Z,7.15
2022-10-05T05:31:28.678Z,8.00
2022-10-05T05:34:07.710Z,7.82
2022-10-05T05:36:49.807Z,7.13
2022-10-05T05:39:30.397Z,7.70
2022-10-05T05:42:22.810Z,8.02
2022-10-05T05:44:53.856Z,8.45
2022-10-05T05:47:29.302Z,8.60
2022-10-05T05:50:11.215Z,9.40
2022-10-05T05:52:42.806Z,9.10
2022-10-05T05:55:20.249Z,8.73
2022-10-05T05:57:57.609Z,9.05
2022-10-05T06:00:30.243Z,9.45
2022-10-05T06:03:08.139Z,9.48
2022-10-05T06:05:41.280Z,9.13
2022-10-05T06:08:17.130Z,9.45
2022-10-05T06:10:52.303Z,9.65
2022-10-05T06:13:32.953Z,10.65
2022-10-05T06:16:09.593Z,10.05
2022-10-05T06:18:41.903Z,10.50
2022-10-05T06:21:22.598Z,10.52
2022-10-05T06:23:58.964Z,11.63
2022-10-05T06:26:49.061Z,10.38
2022-10-05T06:29:24.545Z,11.00
2022-10-05T06:32:08.490Z,10.60
2022-10-05T06:34:57.826Z,12.60
2022-10-05T06:37:40.357Z,11.80
2022-10-05T06:40:28.886Z,11.07
2022-10-05T06:43:24.374Z,11.55
2022-10-05T06:46:03.926Z,11.43
2022-10-05T06:49:00.463Z,11.75
2022-10-05T06:51:41.981Z,11.75
2022-10-05T06:54:20.691Z,12.15
2022-10-05T06:56:57.142Z,11.50
2022-10-05T06:59:31.353Z,12.25
2022-10-05T07:02:13.300Z,12.20
2022-10-05T07:05:05.640Z,12.50
2022-10-05T07:07:46.079Z,12.20
2022-10-05T07:10:29.615Z,12.32
2022-10-05T07:13:25.441Z,12.85
2022-10-05T07:16:02.716Z,11.82
2022-10-05T07:18:50.463Z,12.27
2022-10-05T07:21:29.840Z,12.35
2022-10-05T07:24:08.526Z,10.98
2022-10-05T07:26:45.347Z,11.93
2022-10-05T07:29:31.501Z,11.20
2022-10-05T07:32:15.696Z,12.02
2022-10-05T07:34:55.167Z,12.13
2022-10-05T07:37:49.428Z,11.82
2022-10-05T07:40:24.816Z,12.15
2022-10-05T07:43:06.174Z,11.00
2022-10-05T07:45:44.667Z,11.35
2022-10-05T07:48:18.272Z,11.07
2022-10-05T07:51:00.072Z,10.93
2022-10-05T07:53:35.438Z,10.93
2022-10-05T07:56:11.354Z,10.77
2022-10-05T07:58:44.461Z,10.85
2022-10-05T08:01:19.335Z,10.68
2022-10-05T08:03:55.123Z,10.73
2022-10-05T08:06:45.900Z,10.82
2022-10-05T08:09:30.035Z,11.10
2022-10-05T08:12:08.576Z,10.63
2022-10-05T08:14:50.175Z,10.55
2022-10-05T08:17:26.686Z,10.52
2022-10-05T08:20:03.301Z,11.35
2022-10-05T08:22:46.686Z,10.23
2022-10-05T08:25:23.616Z,11.18
2022-10-05T08:27:57.087Z,10.02
2022-10-05T08:30:27.498Z,10.07
2022-10-05T08:33:03.989Z,9.80
2022-10-05T08:35:38.851Z,9.85
2022-10-05T08:38:14.385Z,9.98
2022-10-05T08:41:28.684Z,9.65
2022-10-05T08:44:28.980Z,9.82
2022-10-05T08:47:32.044Z,9.75
2022-10-05T08:50:15.913Z,9.27
2022-10-05T08:53:13.036Z,10.23
2022-10-05T08:55:53.382Z,9.10
2022-10-05T08:59:01.703Z,9.23
2022-10-05T09:01:38.059Z,10.10
2022-10-05T09:04:23.922Z,10.27
2022-10-05T09:07:16.523Z,10.65
2022-10-05T09:10:27.797Z,9.45
2022-10-05T09:13:28.229Z,9.60
2022-10-05T09:16:15.042Z,10.32
2022-10-05T09:19:28.484Z,9.15
2022-10-05T09:21:59.718Z,9.23
2022-10-05T09:24:34.517Z,9.15
2022-10-05T09:27:11.089Z,9.50
2022-10-05T09:30:12.940Z,9.52
2022-10-05T09:33:25.979Z,8.63
2022-10-05T09:36:23.917Z,8.98
2022-10-05T09:39:22.359Z,8.30
2022-10-05T09:42:33.048Z,8.25
2022-10-05T09:45:38.366Z,8.65
2022-10-05T09:48:51.518Z,9.25
2022-10-05T09:51:58.694Z,8.77
2022-10-05T09:55:01.395Z,8.30
2022-10-05T09:58:03.729Z,8.50
2022-10-05T10:01:03.815Z,7.72
2022-10-05T10:04:15.384Z,9.18
2022-10-05T10:07:28.985Z,7.65
2022-10-05T10:10:30.347Z,7.65
2022-10-05T10:13:25.597Z,8.05
2022-10-05T10:16:20.282Z,7.38
2022-10-05T10:19:06.817Z,7.63
2022-10-05T10:22:11.291Z,7.60
2022-10-05T10:25:21.732Z,8.07
2022-10-05T10:28:13.768Z,8.38
2022-10-05T10:31:07.682Z,7.30
2022-10-05T10:34:10.978Z,7.55
2022-10-05T10:37:10.937Z,6.75
2022-10-05T10:39:52.331Z,6.93
2022-10-05T10:42:37.614Z,6.03
2022-10-05T10:45:21.142Z,6.85
2022-10-05T10:48:00.322Z,6.70
2022-10-05T10:51:06.155Z,7.10
2022-10-05T10:54:05.081Z,6.03
2022-10-05T10:56:57.470Z,5.85
2022-10-05T11:00:01.501Z,5.90
2022-10-05T11:03:21.632Z,6.10
2022-10-05T11:06:22.515Z,5.25
2022-10-05T11:09:23.733Z,5.65
2022-10-05T11:12:21.975Z,5.55
2022-10-05T11:15:01.297Z,5.45
2022-10-05T11:17:57.859Z,5.68
2022-10-05T11:21:19.620Z,5.50
2022-10-05T11:24:27.181Z,4.78
2022-10-05T11:27:11.170Z,4.70
2022-10-05T11:30:17.090Z,4.35
2022-10-05T11:33:13.700Z,4.40
2022-10-05T11:35:54.624Z,4.40
2022-10-05T11:39:02.136Z,3.90
2022-10-05T11:42:10.486Z,3.17
2022-10-05T11:45:11.495Z,3.38
2022-10-05T11:47:52.813Z,3.50
2022-10-05T11:50:26.908Z,3.17
2022-10-05T11:53:01.853Z,2.88
2022-10-05T11:55:36.201Z,3.40
2022-10-05T11:58:13.722Z,3.53
2022-10-05T12:00:45.299Z,3.10
2022-10-05T12:03:42.519Z,3.55
2022-10-05T12:06:41.935Z,3.20
2022-10-05T12:09:24.353Z,3.10
2022-10-05T12:12:04.628Z,3.13
2022-10-05T12:14:45.696Z,3.08
2022-10-05T12:17:25.326Z,2.92
2022-10-05T12:19:59.819Z,3.40
2022-10-05T12:22:35.531Z,3.28
2022-10-05T12:25:21.588Z,2.83
2022-10-05T12:27:53.308Z,3.55
2022-10-05T12:30:34.905Z,2.88
2022-10-05T12:33:12.090Z,2.95
2022-10-05T12:35:48.960Z,3.50
2022-10-05T12:38:26.956Z,3.05
2022-10-05T12:41:07.345Z,3.22
2022-10-05T12:43:45.238Z,3.50
2022-10-05T12:46:24.763Z,3.33
2022-10-05T12:49:14.471Z,3.20
2022-10-05T12:51:46.174Z,3.08
2022-10-05T12:54:22.418Z,3.20
2022-10-05T12:56:55.823Z,3.05
2022-10-05T12:59:41.114Z,2.85
2022-10-05T13:02:23.726Z,2.90
2022-10-05T13:04:58.537Z,2.92
2022-10-05T13:07:40.540Z,2.97
2022-10-05T13:10:30.399Z,2.80
2022-10-05T13:13:15.537Z,2.88
2022-10-05T13:15:53.713Z,3.10
2022-10-05T13:18:34.554Z,2.67
2022-10-05T13:21:09.434Z,3.58
2022-10-05T13:23:55.087Z,3.00
2022-10-05T13:26:36.678Z,3.25
2022-10-05T13:29:18.101Z,3.63
2022-10-05T13:31:49.918Z,3.28
2022-10-05T13:34:29.174Z,3.35
2022-10-05T13:37:09.061Z,3.45
2022-10-05T13:39:59.210Z,3.42
2022-10-05T13:42:35.495Z,2.90
2022-10-05T13:45:13.729Z,3.28
2022-10-05T13:47:57.436Z,3.20
2022-10-05T13:50:33.707Z,2.50
2022-10-05T13:53:10.877Z,2.58
2022-10-05T13:55:47.175Z,2.95
2022-10-05T13:58:29.103Z,2.65
2022-10-05T14:01:03.610Z,2.72
2022-10-05T14:03:36.969Z,2.97
2022-10-05T14:06:15.789Z,3.20
2022-10-05T14:08:51.735Z,3.17
2022-10-05T14:11:31.403Z,3.10
2022-10-05T14:14:15.802Z,3.00
2022-10-05T14:16:54.492Z,2.80
2022-10-05T14:19:34.384Z,2.38
2022-10-05T14:22:16.302Z,2.85
2022-10-05T14:24:55.578Z,2.85
2022-10-05T14:27:27.100Z,2.60
2022-10-05T14:30:04.435Z,2.97
2022-10-05T14:32:44.265Z,2.90
2022-10-05T14:35:18.497Z,2.97
2022-10-05T14:37:53.462Z,2.92
2022-10-05T14:40:33.902Z,2.75
2022-10-05T14:43:21.698Z,2.58
2022-10-05T14:45:57.876Z,3.22
2022-10-05T14:48:30.420Z,3.08
2022-10-05T14:51:02.240Z,2.90
2022-10-05T14:53:45.289Z,3.10
2022-10-05T14:56:32.351Z,2.83
2022-10-05T14:59:27.882Z,2.95
2022-10-05T15:02:02.391Z,3.00
2022-10-05T15:04:43.558Z,2.90
2022-10-05T15:07:23.310Z,2.92
2022-10-05T15:10:12.283Z,2.85
2022-10-05T15:12:45.507Z,3.55
2022-10-05T15:15:29.423Z,2.95
2022-10-05T15:18:02.235Z,2.90
2022-10-05T15:20:39.346Z,3.22
2022-10-05T15:23:23.769Z,3.67
2022-10-05T15:26:02.966Z,3.15
2022-10-05T15:28:42.334Z,2.85
2022-10-05T15:31:23.369Z,3.03
2022-10-05T15:33:59.846Z,3.40
2022-10-05T15:36:37.178Z,3.10
2022-10-05T15:39:17.146Z,3.20
2022-10-05T15:42:00.339Z,2.97
2022-10-05T15:44:47.861Z,2.97
2022-10-05T15:47:23.814Z,3.67
2022-10-05T15:50:03.498Z,3.13
2022-10-05T15:52:39.167Z,3.45
2022-10-05T15:55:24.487Z,3.13
2022-10-05T15:58:12.431Z,3.33
2022-10-05T16:00:47.972Z,3.10
2022-10-05T16:03:27.353Z,3.10
2022-10-05T16:06:20.394Z,3.30
2022-10-05T16:09:03.133Z,3.08
2022-10-05T16:11:54.511Z,3.53
2022-10-05T16:14:55.060Z,3.17
2022-10-05T16:17:41.651Z,2.92
2022-10-05T16:20:32.004Z,3.40
2022-10-05T16:23:06.731Z,3.08
2022-10-05T16:25:48.756Z,2.92
2022-10-05T16:28:32.075Z,3.22
2022-10-05T16:31:09.543Z,3.00
2022-10-05T16:33:54.511Z,2.85
2022-10-05T16:36:35.795Z,2.92
2022-10-05T16:39:11.599Z,4.03
2022-10-05T16:41:48.003Z,4.05
2022-10-05T16:44:28.121Z,3.92
2022-10-05T16:47:27.628Z,2.90
2022-10-05T16:50:04.195Z,3.22
2022-10-05T16:52:34.141Z,3.42
2022-10-05T16:55:07.101Z,3.00
2022-10-05T16:57:39.804Z,2.70
2022-10-05T17:00:20.372Z,2.58
2022-10-05T17:03:10.238Z,3.20
2022-10-05T17:05:56.022Z,2.72
2022-10-05T17:08:47.444Z,2.63
2022-10-05T17:11:32.783Z,2.42
2022-10-05T17:14:29.087Z,2.70
2022-10-05T17:17:23.633Z,2.55
2022-10-05T17:20:02.238Z,2.63
2022-10-05T17:22:37.522Z,2.67
2022-10-05T17:25:18.380Z,2.15
2022-10-05T17:27:55.310Z,2.60
2022-10-05T17:30:39.685Z,2.42
2022-10-05T17:33:25.977Z,2.60
2022-10-05T17:36:18.026Z,2.55
2022-10-05T17:38:49.746Z,2.30
2022-10-05T17:41:21.480Z,2.42
2022-10-05T17:44:26.117Z,2.40
2022-10-05T17:46:56.833Z,2.65
2022-10-05T17:50:10.740Z,2.30
2022-10-05T17:53:01.852Z,1.92
2022-10-05T17:55:43.594Z,2.55
2022-10-05T17:59:04.194Z,2.53
2022-10-05T18:01:35.076Z,2.33
2022-10-05T18:04:44.877Z,2.70
2022-10-05T18:07:21.481Z,2.65
2022-10-05T18:10:17.807Z,2.47
2022-10-05T18:12:49.275Z,2.58
2022-10-05T18:15:46.122Z,2.40
2022-10-05T18:18:51.059Z,2.80
2022-10-05T18:21:40.410Z,2.60
2022-10-05T18:24:38.294Z,2.75
2022-10-05T18:27:42.121Z,2.80
2022-10-05T18:30:22.644Z,2.70
2022-10-05T18:33:13.811Z,2.90
2022-10-05T18:35:53.441Z,2.90
2022-10-05T18:38:35.329Z,2.95
2022-10-05T18:41:11.482Z,2.60
2022-10-05T18:43:47.091Z,2.42
2022-10-05T18:46:28.042Z,2.97
2022-10-05T18:49:08.055Z,2.50
2022-10-05T18:51:50.923Z,2.40
2022-10-05T18:54:36.046Z,2.88
2022-10-05T18:57:27.259Z,2.58
2022-10-05T19:00:03.231Z,3.10
2022-10-05T19:02:38.568Z,2.72
2022-10-05T19:05:46.488Z,2.47
2022-10-05T19:08:18.836Z,2.80
2022-10-05T19:10:54.550Z,2.65
2022-10-05T19:13:37.792Z,2.42
2022-10-05T19:16:26.784Z,3.00
2022-10-05T19:19:10.960Z,3.25
2022-10-05T19:21:47.649Z,2.70
2022-10-05T19:24:43.636Z,2.80
2022-10-05T19:27:20.367Z,2.88
2022-10-05T19:30:15.564Z,2.83
2022-10-05T19:33:19.887Z,2.88
2022-10-05T19:36:03.067Z,2.60
2022-10-05T19:38:45.788Z,2.92
2022-10-05T19:41:19.049Z,3.05
2022-10-05T19:44:03.652Z,2.85
2022-10-05T19:46:50.549Z,3.47
2022-10-05T19:49:45.795Z,3.13
2022-10-05T19:52:23.618Z,3.97
2022-10-05T19:55:04.711Z,3.78
2022-10-05T19:57:33.516Z,3.25
2022-10-05T20:00:06.095Z,3.38
2022-10-05T20:02:37.531Z,4.40
2022-10-05T20:05:10.496Z,4.22
2022-10-05T20:07:41.010Z,4.10
2022-10-05T20:10:29.139Z,4.72
2022-10-05T20:13:01.981Z,4.03
2022-10-05T20:15:49.168Z,4.53
2022-10-05T20:18:57.616Z,3.75
2022-10-05T20:21:49.815Z,4.60
2022-10-05T20:24:21.215Z,4.72
2022-10-05T20:27:06.006Z,4.75
2022-10-05T20:29:36.568Z,4.90
2022-10-05T20:32:08.722Z,4.80
2022-10-05T20:34:39.305Z,4.10
2022-10-05T20:37:07.677Z,4.03
2022-10-05T20:39:37.456Z,4.20
2022-10-05T20:42:07.486Z,3.85
2022-10-05T20:44:36.396Z,3.70
2022-10-05T20:47:05.111Z,3.70
2022-10-05T20:49:35.316Z,3.95
2022-10-05T20:52:04.627Z,3.75
2022-10-05T20:54:33.419Z,3.90
2022-10-05T20:57:05.741Z,3.38
2022-10-05T20:59:35.116Z,3.47
2022-10-05T21:02:03.870Z,3.10
2022-10-05T21:04:40.853Z,3.42
2022-10-05T21:07:10.583Z,3.75
2022-10-05T21:09:40.982Z,3.13
2022-10-05T21:12:11.517Z,3.50
2022-10-05T21:14:40.613Z,3.28
2022-10-05T21:17:14.240Z,3.47
2022-10-05T21:19:42.637Z,2.92
2022-10-05T21:22:11.975Z,2.85
2022-10-05T21:24:42.013Z,3.35
2022-10-05T21:27:11.812Z,3.22
2022-10-05T21:29:41.254Z,3.13
2022-10-05T21:32:11.955Z,3.03
2022-10-05T21:34:41.100Z,3.60
2022-10-05T21:37:10.053Z,2.75
2022-10-05T21:39:38.415Z,3.63
2022-10-05T21:42:06.816Z,3.30
2022-10-05T21:44:36.604Z,2.85
2022-10-05T21:47:06.982Z,3.30
2022-10-05T21:49:36.557Z,3.53
2022-10-05T21:52:06.037Z,3.03
2022-10-05T21:54:35.178Z,3.00
2022-10-05T21:57:04.223Z,2.60
2022-10-05T21:59:35.073Z,3.25
2022-10-05T22:02:05.215Z,3.00
2022-10-05T22:04:33.614Z,3.10
2022-10-05T22:07:01.848Z,3.15
2022-10-05T22:09:30.493Z,2.70
2022-10-05T22:11:59.193Z,3.00
2022-10-05T22:14:28.348Z,2.85
2022-10-05T22:16:56.643Z,2.72
2022-10-05T22:19:26.647Z,2.80
2022-10-05T22:21:55.013Z,2.97
2022-10-05T22:24:23.894Z,2.95
2022-10-05T22:26:52.905Z,3.10
2022-10-05T22:29:23.452Z,2.60
2022-10-05T22:31:51.754Z,2.58
2022-10-05T22:34:20.105Z,2.78
2022-10-05T22:36:50.265Z,2.92
2022-10-05T22:39:19.195Z,2.90
2022-10-05T22:41:47.973Z,2.92
2022-10-05T22:44:17.066Z,3.20
2022-10-05T22:46:45.497Z,2.90
2022-10-05T22:49:14.267Z,2.63
2022-10-05T22:51:42.914Z,2.33
2022-10-05T22:54:12.935Z,2.80
2022-10-05T22:56:41.260Z,3.33
2022-10-05T22:59:09.871Z,2.63
2022-10-05T23:01:38.241Z,2.60
2022-10-05T23:04:08.838Z,2.53
2022-10-05T23:06:37.675Z,2.30
2022-10-05T23:09:06.408Z,2.40
2022-10-05T23:11:36.889Z,2.90
2022-10-05T23:14:05.161Z,2.20
2022-10-05T23:16:35.815Z,2.42
2022-10-05T23:19:04.212Z,2.38
2022-10-05T23:21:32.436Z,2.50
2022-10-05T23:24:00.960Z,2.97
2022-10-05T23:26:30.618Z,2.35
2022-10-05T23:29:00.463Z,2.30
2022-10-05T23:31:33.546Z,2.28
2022-10-05T23:34:01.865Z,2.25
2022-10-05T23:36:32.468Z,2.17
2022-10-05T23:39:01.269Z,2.38
2022-10-05T23:41:30.465Z,2.38
2022-10-05T23:44:00.251Z,2.20
2022-10-05T23:46:28.805Z,2.20
2022-10-05T23:48:57.214Z,2.08
2022-10-05T23:51:25.661Z,2.45
2022-10-05T23:53:54.124Z,2.08
2022-10-05T23:56:22.622Z,2.13
2022-10-05T23:58:52.712Z,2.10
